Time;durP1;ratioP1;P1;durP2;ratioP2;P2;SDS_P1;SDS_P2;PMS_P1;PMS_P2;Temp;Humidity;BMP_temperature;BMP_pressure;BME280_temperature;BME280_humidity;BME280_pressure;Samples;Min_cycle;Max_cycle;Signal;HPM_P1;HPM_P2
2022/09/23 00:00:16;;;;;;;7.95;6.65;;;;;;;4.11;60.70313;95597.94;;;;
2022/09/23 00:01:17;;;;;;;7.95;6.65;;;;;;;4.11;60.70313;95597.94;;;;
2022/09/23 00:02:19;;;;;;;7.95;6.65;;;;;;;4.11;60.70313;95597.94;;;;
2022/09/23 00:03:20;;;;;;;7.9;6.700001;;;;;;;4.02;60.87207;95598.91;;;;
2022/09/23 00:04:20;;;;;;;7.9;6.700001;;;;;;;4.02;60.87207;95598.91;;;;
2022/09/23 00:05:21;;;;;;;7.9;6.700001;;;;;;;4.02;60.87207;95598.91;;;;
2022/09/23 00:06:21;;;;;;;7.9;6.700001;;;;;;;4.02;60.87207;95598.91;;;;
2022/09/23 00:07:23;;;;;;;7.9;6.700001;;;;;;;4.02;60.87207;95598.91;;;;
2022/09/23 00:08:23;;;;;;;7.9;6.700001;;;;;;;4.02;60.87207;95598.91;;;;
2022/09/23 00:09:24;;;;;;;7.9;6.700001;;;;;;;4.02;60.87207;95598.91;;;;
2022/09/23 00:10:24;;;;;;;7.9;6.700001;;;;;;;4.02;60.87207;95598.91;;;;
2022/09/23 00:11:27;;;;;;;7.9;6.700001;;;;;;;4.02;60.87207;95598.91;;;;
2022/09/23 00:12:28;;;;;;;7.9;6.700001;;;;;;;4.02;60.87207;95598.91;;;;
2022/09/23 00:13:28;;;;;;;7.9;6.700001;;;;;;;4.02;60.87207;95598.91;;;;
2022/09/23 00:14:29;;;;;;;6.3;5.7;;;;;;;3.94;61.13672;95588.04;;;;
2022/09/23 00:15:30;;;;;;;6.3;5.7;;;;;;;3.94;61.13672;95588.04;;;;
2022/09/23 00:16:31;;;;;;;6.3;5.7;;;;;;;3.94;61.13672;95588.04;;;;
2022/09/23 00:17:33;;;;;;;6.3;5.7;;;;;;;3.94;61.13672;95588.04;;;;
2022/09/23 00:18:34;;;;;;;6.3;5.7;;;;;;;3.94;61.13672;95588.04;;;;
2022/09/23 00:19:36;;;;;;;6.3;5.7;;;;;;;3.94;61.13672;95588.04;;;;
2022/09/23 00:20:39;;;;;;;6.3;5.7;;;;;;;3.94;61.13672;95588.04;;;;
2022/09/23 00:21:39;;;;;;;6.3;5.7;;;;;;;3.94;61.13672;95588.04;;;;
2022/09/23 00:22:40;;;;;;;6.3;5.7;;;;;;;3.94;61.13672;95588.04;;;;
2022/09/23 00:23:41;;;;;;;6.3;5.7;;;;;;;3.94;61.13672;95588.04;;;;
2022/09/23 00:24:42;;;;;;;5.5;5;;;;;;;3.78;62.53906;95588.04;;;;
2022/09/23 00:25:42;;;;;;;5.5;5;;;;;;;3.78;62.53906;95588.04;;;;
2022/09/23 00:26:43;;;;;;;5.5;5;;;;;;;3.78;62.53906;95588.04;;;;
2022/09/23 00:27:43;;;;;;;5.5;5;;;;;;;3.78;62.53906;95588.04;;;;
2022/09/23 00:28:44;;;;;;;5.5;5;;;;;;;3.78;62.53906;95588.04;;;;
2022/09/23 00:29:45;;;;;;;5.5;5;;;;;;;3.78;62.53906;95588.04;;;;
2022/09/23 00:30:46;;;;;;;5.5;5;;;;;;;3.78;62.53906;95588.04;;;;
2022/09/23 00:31:46;;;;;;;5.5;5;;;;;;;3.78;62.53906;95588.04;;;;
2022/09/23 00:32:47;;;;;;;5.5;5;;;;;;;3.78;62.53906;95588.04;;;;
2022/09/23 00:33:48;;;;;;;5.5;5;;;;;;;3.78;62.53906;95588.04;;;;
2022/09/23 00:34:52;;;;;;;5.5;5;;;;;;;3.78;62.53906;95588.04;;;;
2022/09/23 00:35:53;;;;;;;6.8;5.45;;;;;;;3.61;63.50098;95586;;;;
2022/09/23 00:36:57;;;;;;;6.8;5.45;;;;;;;3.61;63.50098;95586;;;;
2022/09/23 00:37:58;;;;;;;6.8;5.45;;;;;;;3.61;63.50098;95586;;;;
2022/09/23 00:38:58;;;;;;;6.8;5.45;;;;;;;3.61;63.50098;95586;;;;
2022/09/23 00:39:59;;;;;;;6.8;5.45;;;;;;;3.61;63.50098;95586;;;;
2022/09/23 00:41:00;;;;;;;6.8;5.45;;;;;;;3.61;63.50098;95586;;;;
2022/09/23 00:42:01;;;;;;;6.8;5.45;;;;;;;3.61;63.50098;95586;;;;
2022/09/23 00:43:02;;;;;;;6.8;5.45;;;;;;;3.61;63.50098;95586;;;;
2022/09/23 00:44:03;;;;;;;6.8;5.45;;;;;;;3.61;63.50098;95586;;;;
2022/09/23 00:45:40;;;;;;;6.8;5.45;;;;;;;3.61;63.50098;95586;;;;
2022/09/23 00:46:45;;;;;;;5.75;5.15;;;;;;;3.54;64.11914;95575.79;;;;
2022/09/23 00:47:46;;;;;;;5.75;5.15;;;;;;;3.54;64.11914;95575.79;;;;
2022/09/23 00:48:53;;;;;;;5.75;5.15;;;;;;;3.54;64.11914;95575.79;;;;
2022/09/23 00:49:59;;;;;;;5.75;5.15;;;;;;;3.54;64.11914;95575.79;;;;
2022/09/23 00:51:04;;;;;;;5.75;5.15;;;;;;;3.54;64.11914;95575.79;;;;
2022/09/23 00:52:08;;;;;;;5.75;5.15;;;;;;;3.54;64.11914;95575.79;;;;
2022/09/23 00:53:12;;;;;;;5.75;5.15;;;;;;;3.54;64.11914;95575.79;;;;
2022/09/23 00:54:16;;;;;;;5.75;5.15;;;;;;;3.54;64.11914;95575.79;;;;
2022/09/23 00:55:18;;;;;;;5.75;5.15;;;;;;;3.54;64.11914;95575.79;;;;
2022/09/23 00:56:22;;;;;;;5.75;5.15;;;;;;;3.54;64.11914;95575.79;;;;
2022/09/23 00:57:23;;;;;;;5.950001;5.349999;;;;;;;3.46;64.54102;95568.42;;;;
2022/09/23 00:58:26;;;;;;;5.950001;5.349999;;;;;;;3.46;64.54102;95568.42;;;;
2022/09/23 00:59:30;;;;;;;5.950001;5.349999;;;;;;;3.46;64.54102;95568.42;;;;
2022/09/23 01:00:32;;;;;;;5.950001;5.349999;;;;;;;3.46;64.54102;95568.42;;;;
2022/09/23 01:01:33;;;;;;;5.950001;5.349999;;;;;;;3.46;64.54102;95568.42;;;;
2022/09/23 01:02:34;;;;;;;5.950001;5.349999;;;;;;;3.46;64.54102;95568.42;;;;
2022/09/23 01:03:34;;;;;;;5.950001;5.349999;;;;;;;3.46;64.54102;95568.42;;;;
2022/09/23 01:04:35;;;;;;;5.950001;5.349999;;;;;;;3.46;64.54102;95568.42;;;;
2022/09/23 01:05:37;;;;;;;5.950001;5.349999;;;;;;;3.46;64.54102;95568.42;;;;
2022/09/23 01:06:40;;;;;;;5.950001;5.349999;;;;;;;3.46;64.54102;95568.42;;;;
2022/09/23 01:07:40;;;;;;;6.05;5.45;;;;;;;3.37;65.00586;95562.77;;;;
2022/09/23 01:08:41;;;;;;;6.05;5.45;;;;;;;3.37;65.00586;95562.77;;;;
2022/09/23 01:09:45;;;;;;;6.05;5.45;;;;;;;3.37;65.00586;95562.77;;;;
2022/09/23 01:10:47;;;;;;;6.05;5.45;;;;;;;3.37;65.00586;95562.77;;;;
2022/09/23 01:11:55;;;;;;;6.05;5.45;;;;;;;3.37;65.00586;95562.77;;;;
2022/09/23 01:13:08;;;;;;;6.05;5.45;;;;;;;3.37;65.00586;95562.77;;;;
2022/09/23 01:14:17;;;;;;;6.05;5.45;;;;;;;3.37;65.00586;95562.77;;;;
2022/09/23 01:15:31;;;;;;;6.05;5.45;;;;;;;3.37;65.00586;95562.77;;;;
2022/09/23 01:16:44;;;;;;;6.05;5.45;;;;;;;3.37;65.00586;95562.77;;;;
2022/09/23 01:17:52;;;;;;;5.75;5.25;;;;;;;3.29;65.53418;95555.81;;;;
2022/09/23 01:19:02;;;;;;;5.75;5.25;;;;;;;3.29;65.53418;95555.81;;;;
2022/09/23 01:20:17;;;;;;;5.75;5.25;;;;;;;3.29;65.53418;95555.81;;;;
2022/09/23 01:21:40;;;;;;;5.75;5.25;;;;;;;3.29;65.53418;95555.81;;;;
2022/09/23 01:22:51;;;;;;;5.75;5.25;;;;;;;3.29;65.53418;95555.81;;;;
2022/09/23 01:24:04;;;;;;;5.75;5.25;;;;;;;3.29;65.53418;95555.81;;;;
2022/09/23 01:25:24;;;;;;;5.75;5.25;;;;;;;3.29;65.53418;95555.81;;;;
2022/09/23 01:26:39;;;;;;;5.75;5.25;;;;;;;3.29;65.53418;95555.81;;;;
2022/09/23 01:27:53;;;;;;;5.75;5.25;;;;;;;3.29;65.53418;95555.81;;;;
2022/09/23 01:29:11;;;;;;;6.6;5.900001;;;;;;;3.18;65.85645;95547.88;;;;
2022/09/23 01:30:36;;;;;;;6.6;5.900001;;;;;;;3.18;65.85645;95547.88;;;;
2022/09/23 01:31:44;;;;;;;6.6;5.900001;;;;;;;3.18;65.85645;95547.88;;;;
2022/09/23 01:32:50;;;;;;;6.6;5.900001;;;;;;;3.18;65.85645;95547.88;;;;
2022/09/23 01:34:01;;;;;;;6.6;5.900001;;;;;;;3.18;65.85645;95547.88;;;;
2022/09/23 01:35:09;;;;;;;6.6;5.900001;;;;;;;3.18;65.85645;95547.88;;;;
2022/09/23 01:36:23;;;;;;;6.6;5.900001;;;;;;;3.18;65.85645;95547.88;;;;
2022/09/23 01:37:28;;;;;;;6.6;5.900001;;;;;;;3.18;65.85645;95547.88;;;;
2022/09/23 01:38:36;;;;;;;6.6;5.900001;;;;;;;3.18;65.85645;95547.88;;;;
2022/09/23 01:39:45;;;;;;;6.199999;5.600001;;;;;;;3.07;66.20996;95534.24;;;;
2022/09/23 01:40:58;;;;;;;6.199999;5.600001;;;;;;;3.07;66.20996;95534.24;;;;
2022/09/23 01:42:04;;;;;;;6.199999;5.600001;;;;;;;3.07;66.20996;95534.24;;;;
2022/09/23 01:43:12;;;;;;;6.199999;5.600001;;;;;;;3.07;66.20996;95534.24;;;;
2022/09/23 01:44:18;;;;;;;6.199999;5.600001;;;;;;;3.07;66.20996;95534.24;;;;
2022/09/23 01:45:23;;;;;;;6.199999;5.600001;;;;;;;3.07;66.20996;95534.24;;;;
2022/09/23 01:46:31;;;;;;;6.199999;5.600001;;;;;;;3.07;66.20996;95534.24;;;;
2022/09/23 01:47:37;;;;;;;6.199999;5.600001;;;;;;;3.07;66.20996;95534.24;;;;
2022/09/23 01:48:43;;;;;;;6.199999;5.600001;;;;;;;3.07;66.20996;95534.24;;;;
2022/09/23 01:49:50;;;;;;;6.25;5.700001;;;;;;;2.91;66.62012;95524.66;;;;
2022/09/23 01:50:56;;;;;;;6.25;5.700001;;;;;;;2.91;66.62012;95524.66;;;;
2022/09/23 01:52:02;;;;;;;6.25;5.700001;;;;;;;2.91;66.62012;95524.66;;;;
2022/09/23 01:53:08;;;;;;;6.25;5.700001;;;;;;;2.91;66.62012;95524.66;;;;
2022/09/23 01:54:14;;;;;;;6.25;5.700001;;;;;;;2.91;66.62012;95524.66;;;;
2022/09/23 01:55:22;;;;;;;6.25;5.700001;;;;;;;2.91;66.62012;95524.66;;;;
2022/09/23 01:56:28;;;;;;;6.25;5.700001;;;;;;;2.91;66.62012;95524.66;;;;
2022/09/23 01:57:34;;;;;;;6.25;5.700001;;;;;;;2.91;66.62012;95524.66;;;;
2022/09/23 01:58:41;;;;;;;6.25;5.700001;;;;;;;2.91;66.62012;95524.66;;;;
2022/09/23 01:59:49;;;;;;;6.25;5.700001;;;;;;;2.91;66.62012;95524.66;;;;
2022/09/23 02:00:54;;;;;;;6.4;5.5;;;;;;;2.77;66.99023;95517.86;;;;
2022/09/23 02:01:59;;;;;;;6.4;5.5;;;;;;;2.77;66.99023;95517.86;;;;
2022/09/23 02:03:05;;;;;;;6.4;5.5;;;;;;;2.77;66.99023;95517.86;;;;
2022/09/23 02:04:10;;;;;;;6.4;5.5;;;;;;;2.77;66.99023;95517.86;;;;
2022/09/23 02:05:17;;;;;;;6.4;5.5;;;;;;;2.77;66.99023;95517.86;;;;
2022/09/23 02:06:24;;;;;;;6.4;5.5;;;;;;;2.77;66.99023;95517.86;;;;
2022/09/23 02:07:30;;;;;;;6.4;5.5;;;;;;;2.77;66.99023;95517.86;;;;
2022/09/23 02:08:35;;;;;;;6.4;5.5;;;;;;;2.77;66.99023;95517.86;;;;
2022/09/23 02:09:43;;;;;;;6.4;5.5;;;;;;;2.77;66.99023;95517.86;;;;
2022/09/23 02:10:49;;;;;;;6.4;5.5;;;;;;;2.77;66.99023;95517.86;;;;
2022/09/23 02:11:53;;;;;;;6.4;5.5;;;;;;;2.77;66.99023;95517.86;;;;
2022/09/23 02:12:59;;;;;;;6.4;5.5;;;;;;;2.77;66.99023;95517.86;;;;
2022/09/23 02:14:06;;;;;;;6.4;5.5;;;;;;;2.77;66.99023;95517.86;;;;
2022/09/23 02:15:14;;;;;;;6.4;5.5;;;;;;;2.77;66.99023;95517.86;;;;
2022/09/23 02:16:18;;;;;;;6.4;5.5;;;;;;;2.77;66.99023;95517.86;;;;
2022/09/23 02:17:25;;;;;;;6.4;5.5;;;;;;;2.77;66.99023;95517.86;;;;
2022/09/23 02:18:31;;;;;;;6.4;5.5;;;;;;;2.77;66.99023;95517.86;;;;
2022/09/23 02:19:38;;;;;;;6.4;5.5;;;;;;;2.77;66.99023;95517.86;;;;
2022/09/23 02:20:46;;;;;;;6.4;5.5;;;;;;;2.77;66.99023;95517.86;;;;
2022/09/23 02:21:51;;;;;;;6.4;5.5;;;;;;;2.77;66.99023;95517.86;;;;
2022/09/23 02:23:00;;;;;;;5.75;5.25;;;;;;;2.59;67.81055;95527.07;;;;
2022/09/23 02:24:05;;;;;;;5.75;5.25;;;;;;;2.59;67.81055;95527.07;;;;
2022/09/23 02:25:11;;;;;;;5.75;5.25;;;;;;;2.59;67.81055;95527.07;;;;
2022/09/23 02:26:12;;;;;;;5.75;5.25;;;;;;;2.59;67.81055;95527.07;;;;
2022/09/23 02:27:19;;;;;;;5.75;5.25;;;;;;;2.59;67.81055;95527.07;;;;
2022/09/23 02:28:29;;;;;;;5.75;5.25;;;;;;;2.59;67.81055;95527.07;;;;
2022/09/23 02:29:36;;;;;;;5.75;5.25;;;;;;;2.59;67.81055;95527.07;;;;
2022/09/23 02:30:48;;;;;;;5.75;5.25;;;;;;;2.59;67.81055;95527.07;;;;
2022/09/23 02:31:59;;;;;;;5.75;5.25;;;;;;;2.59;67.81055;95527.07;;;;
2022/09/23 02:33:12;;;;;;;6;5.400001;;;;;;;2.52;68.10352;95527.45;;;;
2022/09/23 02:34:20;;;;;;;6;5.400001;;;;;;;2.52;68.10352;95527.45;;;;
2022/09/23 02:35:31;;;;;;;6;5.400001;;;;;;;2.52;68.10352;95527.45;;;;
2022/09/23 02:36:36;;;;;;;6;5.400001;;;;;;;2.52;68.10352;95527.45;;;;
2022/09/23 02:37:46;;;;;;;6;5.400001;;;;;;;2.52;68.10352;95527.45;;;;
2022/09/23 02:38:56;;;;;;;6;5.400001;;;;;;;2.52;68.10352;95527.45;;;;
2022/09/23 02:39:59;;;;;;;6;5.400001;;;;;;;2.52;68.10352;95527.45;;;;
2022/09/23 02:41:08;;;;;;;6;5.400001;;;;;;;2.52;68.10352;95527.45;;;;
2022/09/23 02:42:12;;;;;;;6;5.400001;;;;;;;2.52;68.10352;95527.45;;;;
2022/09/23 02:43:20;;;;;;;5.9;5.4;;;;;;;2.45;68.44238;95522.55;;;;
2022/09/23 02:44:24;;;;;;;5.9;5.4;;;;;;;2.45;68.44238;95522.55;;;;
2022/09/23 02:45:25;;;;;;;5.9;5.4;;;;;;;2.45;68.44238;95522.55;;;;
2022/09/23 02:46:26;;;;;;;5.9;5.4;;;;;;;2.45;68.44238;95522.55;;;;
2022/09/23 02:47:28;;;;;;;5.9;5.4;;;;;;;2.45;68.44238;95522.55;;;;
2022/09/23 02:48:32;;;;;;;5.9;5.4;;;;;;;2.45;68.44238;95522.55;;;;
2022/09/23 02:49:38;;;;;;;5.9;5.4;;;;;;;2.45;68.44238;95522.55;;;;
2022/09/23 02:50:39;;;;;;;5.9;5.4;;;;;;;2.45;68.44238;95522.55;;;;
2022/09/23 02:51:40;;;;;;;5.9;5.4;;;;;;;2.45;68.44238;95522.55;;;;
2022/09/23 02:52:41;;;;;;;5.9;5.4;;;;;;;2.45;68.44238;95522.55;;;;
2022/09/23 02:53:42;;;;;;;5.9;5.4;;;;;;;2.45;68.44238;95522.55;;;;
2022/09/23 02:54:43;;;;;;;5.750001;5.1;;;;;;;2.37;68.66309;95525.51;;;;
2022/09/23 02:55:43;;;;;;;5.750001;5.1;;;;;;;2.37;68.66309;95525.51;;;;
2022/09/23 02:56:44;;;;;;;5.750001;5.1;;;;;;;2.37;68.66309;95525.51;;;;
2022/09/23 02:57:45;;;;;;;5.750001;5.1;;;;;;;2.37;68.66309;95525.51;;;;
2022/09/23 02:58:46;;;;;;;5.750001;5.1;;;;;;;2.37;68.66309;95525.51;;;;
2022/09/23 02:59:49;;;;;;;5.750001;5.1;;;;;;;2.37;68.66309;95525.51;;;;
2022/09/23 03:00:49;;;;;;;5.750001;5.1;;;;;;;2.37;68.66309;95525.51;;;;
2022/09/23 03:02:03;;;;;;;5.750001;5.1;;;;;;;2.37;68.66309;95525.51;;;;
2022/09/23 03:03:18;;;;;;;5.750001;5.1;;;;;;;2.37;68.66309;95525.51;;;;
2022/09/23 03:04:34;;;;;;;5.750001;5.1;;;;;;;2.37;68.66309;95525.51;;;;
2022/09/23 03:05:46;;;;;;;6.1;5.5;;;;;;;2.33;68.94043;95515.97;;;;
2022/09/23 03:06:52;;;;;;;6.1;5.5;;;;;;;2.33;68.94043;95515.97;;;;
2022/09/23 03:08:01;;;;;;;6.1;5.5;;;;;;;2.33;68.94043;95515.97;;;;
2022/09/23 03:09:14;;;;;;;6.1;5.5;;;;;;;2.33;68.94043;95515.97;;;;
2022/09/23 03:10:21;;;;;;;6.1;5.5;;;;;;;2.33;68.94043;95515.97;;;;
2022/09/23 03:11:29;;;;;;;6.1;5.5;;;;;;;2.33;68.94043;95515.97;;;;
2022/09/23 03:12:34;;;;;;;6.1;5.5;;;;;;;2.33;68.94043;95515.97;;;;
2022/09/23 03:13:41;;;;;;;6.1;5.5;;;;;;;2.33;68.94043;95515.97;;;;
2022/09/23 03:14:54;;;;;;;6.1;5.5;;;;;;;2.33;68.94043;95515.97;;;;
2022/09/23 03:16:02;;;;;;;5.95;5.45;;;;;;;2.33;69.07813;95508.14;;;;
2022/09/23 03:17:12;;;;;;;5.95;5.45;;;;;;;2.33;69.07813;95508.14;;;;
2022/09/23 03:18:19;;;;;;;5.95;5.45;;;;;;;2.33;69.07813;95508.14;;;;
2022/09/23 03:19:29;;;;;;;5.95;5.45;;;;;;;2.33;69.07813;95508.14;;;;
2022/09/23 03:20:34;;;;;;;5.95;5.45;;;;;;;2.33;69.07813;95508.14;;;;
2022/09/23 03:21:39;;;;;;;5.95;5.45;;;;;;;2.33;69.07813;95508.14;;;;
2022/09/23 03:22:45;;;;;;;5.95;5.45;;;;;;;2.33;69.07813;95508.14;;;;
2022/09/23 03:23:52;;;;;;;5.95;5.45;;;;;;;2.33;69.07813;95508.14;;;;
2022/09/23 03:24:53;;;;;;;5.95;5.45;;;;;;;2.33;69.07813;95508.14;;;;
2022/09/23 03:25:58;;;;;;;5.95;5.45;;;;;;;2.33;69.07813;95508.14;;;;
2022/09/23 03:27:01;;;;;;;6.15;5.6;;;;;;;2.25;69.27734;95502.4;;;;
2022/09/23 03:28:04;;;;;;;6.15;5.6;;;;;;;2.25;69.27734;95502.4;;;;
2022/09/23 03:29:08;;;;;;;6.15;5.6;;;;;;;2.25;69.27734;95502.4;;;;
2022/09/23 03:30:10;;;;;;;6.15;5.6;;;;;;;2.25;69.27734;95502.4;;;;
2022/09/23 03:31:13;;;;;;;6.15;5.6;;;;;;;2.25;69.27734;95502.4;;;;
2022/09/23 03:32:14;;;;;;;6.15;5.6;;;;;;;2.25;69.27734;95502.4;;;;
2022/09/23 03:33:18;;;;;;;6.15;5.6;;;;;;;2.25;69.27734;95502.4;;;;
2022/09/23 03:34:24;;;;;;;6.15;5.6;;;;;;;2.25;69.27734;95502.4;;;;
2022/09/23 03:35:28;;;;;;;6.15;5.6;;;;;;;2.25;69.27734;95502.4;;;;
2022/09/23 03:37:05;;;;;;;6.15;5.6;;;;;;;2.25;69.27734;95502.4;;;;
2022/09/23 03:38:14;;;;;;;6.249999;5.749999;;;;;;;2.26;69.39551;95508.36;;;;
2022/09/23 03:39:15;;;;;;;6.249999;5.749999;;;;;;;2.26;69.39551;95508.36;;;;
2022/09/23 03:40:26;;;;;;;6.249999;5.749999;;;;;;;2.26;69.39551;95508.36;;;;
2022/09/23 03:41:30;;;;;;;6.249999;5.749999;;;;;;;2.26;69.39551;95508.36;;;;
2022/09/23 03:42:35;;;;;;;6.249999;5.749999;;;;;;;2.26;69.39551;95508.36;;;;
2022/09/23 03:43:37;;;;;;;6.249999;5.749999;;;;;;;2.26;69.39551;95508.36;;;;
2022/09/23 03:44:39;;;;;;;6.249999;5.749999;;;;;;;2.26;69.39551;95508.36;;;;
2022/09/23 03:45:42;;;;;;;6.249999;5.749999;;;;;;;2.26;69.39551;95508.36;;;;
2022/09/23 03:46:48;;;;;;;6.249999;5.749999;;;;;;;2.26;69.39551;95508.36;;;;
2022/09/23 03:47:49;;;;;;;5.95;5.45;;;;;;;2.25;69.52051;95502;;;;
2022/09/23 03:48:49;;;;;;;5.95;5.45;;;;;;;2.25;69.52051;95502;;;;
2022/09/23 03:49:50;;;;;;;5.95;5.45;;;;;;;2.25;69.52051;95502;;;;
2022/09/23 03:50:51;;;;;;;5.95;5.45;;;;;;;2.25;69.52051;95502;;;;
2022/09/23 03:51:52;;;;;;;5.95;5.45;;;;;;;2.25;69.52051;95502;;;;
2022/09/23 03:52:53;;;;;;;5.95;5.45;;;;;;;2.25;69.52051;95502;;;;
2022/09/23 03:53:53;;;;;;;5.95;5.45;;;;;;;2.25;69.52051;95502;;;;
2022/09/23 03:54:54;;;;;;;5.95;5.45;;;;;;;2.25;69.52051;95502;;;;
2022/09/23 03:55:54;;;;;;;5.95;5.45;;;;;;;2.25;69.52051;95502;;;;
2022/09/23 03:56:56;;;;;;;5.95;5.45;;;;;;;2.25;69.52051;95502;;;;
2022/09/23 03:57:59;;;;;;;5.95;5.45;;;;;;;2.25;69.52051;95502;;;;
2022/09/23 03:58:59;;;;;;;6.2;5.7;;;;;;;2.22;69.68457;95496.59;;;;
2022/09/23 04:00:00;;;;;;;6.2;5.7;;;;;;;2.22;69.68457;95496.59;;;;
2022/09/23 04:01:01;;;;;;;6.2;5.7;;;;;;;2.22;69.68457;95496.59;;;;
2022/09/23 04:02:02;;;;;;;6.2;5.7;;;;;;;2.22;69.68457;95496.59;;;;
2022/09/23 04:03:03;;;;;;;6.2;5.7;;;;;;;2.22;69.68457;95496.59;;;;
2022/09/23 04:04:04;;;;;;;6.2;5.7;;;;;;;2.22;69.68457;95496.59;;;;
2022/09/23 04:05:04;;;;;;;6.2;5.7;;;;;;;2.22;69.68457;95496.59;;;;
2022/09/23 04:06:06;;;;;;;6.2;5.7;;;;;;;2.22;69.68457;95496.59;;;;
2022/09/23 04:07:07;;;;;;;6.2;5.7;;;;;;;2.22;69.68457;95496.59;;;;
2022/09/23 04:08:09;;;;;;;6.2;5.7;;;;;;;2.22;69.68457;95496.59;;;;
2022/09/23 04:09:09;;;;;;;6.649999;6.050001;;;;;;;2.19;69.82813;95495.61;;;;
2022/09/23 04:10:10;;;;;;;6.649999;6.050001;;;;;;;2.19;69.82813;95495.61;;;;
2022/09/23 04:11:11;;;;;;;6.649999;6.050001;;;;;;;2.19;69.82813;95495.61;;;;
2022/09/23 04:12:11;;;;;;;6.649999;6.050001;;;;;;;2.19;69.82813;95495.61;;;;
2022/09/23 04:13:14;;;;;;;6.649999;6.050001;;;;;;;2.19;69.82813;95495.61;;;;
2022/09/23 04:14:15;;;;;;;6.649999;6.050001;;;;;;;2.19;69.82813;95495.61;;;;
2022/09/23 04:15:17;;;;;;;6.649999;6.050001;;;;;;;2.19;69.82813;95495.61;;;;
2022/09/23 04:16:17;;;;;;;6.649999;6.050001;;;;;;;2.19;69.82813;95495.61;;;;
2022/09/23 04:17:18;;;;;;;6.649999;6.050001;;;;;;;2.19;69.82813;95495.61;;;;
2022/09/23 04:18:18;;;;;;;6.649999;6.050001;;;;;;;2.19;69.82813;95495.61;;;;
2022/09/23 04:19:19;;;;;;;6.649999;6.050001;;;;;;;2.19;69.82813;95495.61;;;;
2022/09/23 04:20:19;;;;;;;6.5;5.900001;;;;;;;2.07;70.16797;95492.55;;;;
2022/09/23 04:21:20;;;;;;;6.5;5.900001;;;;;;;2.07;70.16797;95492.55;;;;
2022/09/23 04:22:20;;;;;;;6.5;5.900001;;;;;;;2.07;70.16797;95492.55;;;;
2022/09/23 04:23:21;;;;;;;6.5;5.900001;;;;;;;2.07;70.16797;95492.55;;;;
2022/09/23 04:24:22;;;;;;;6.5;5.900001;;;;;;;2.07;70.16797;95492.55;;;;
2022/09/23 04:25:23;;;;;;;6.5;5.900001;;;;;;;2.07;70.16797;95492.55;;;;
2022/09/23 04:26:24;;;;;;;6.5;5.900001;;;;;;;2.07;70.16797;95492.55;;;;
2022/09/23 04:27:24;;;;;;;6.5;5.900001;;;;;;;2.07;70.16797;95492.55;;;;
2022/09/23 04:28:25;;;;;;;6.5;5.900001;;;;;;;2.07;70.16797;95492.55;;;;
2022/09/23 04:29:25;;;;;;;6.5;5.900001;;;;;;;2.07;70.16797;95492.55;;;;
2022/09/23 04:30:26;;;;;;;6.199999;5.599999;;;;;;;1.97;70.48828;95484.9;;;;
2022/09/23 04:31:27;;;;;;;6.199999;5.599999;;;;;;;1.97;70.48828;95484.9;;;;
2022/09/23 04:32:27;;;;;;;6.199999;5.599999;;;;;;;1.97;70.48828;95484.9;;;;
2022/09/23 04:33:28;;;;;;;6.199999;5.599999;;;;;;;1.97;70.48828;95484.9;;;;
2022/09/23 04:34:28;;;;;;;6.199999;5.599999;;;;;;;1.97;70.48828;95484.9;;;;
2022/09/23 04:35:29;;;;;;;6.199999;5.599999;;;;;;;1.97;70.48828;95484.9;;;;
2022/09/23 04:36:29;;;;;;;6.199999;5.599999;;;;;;;1.97;70.48828;95484.9;;;;
2022/09/23 04:37:30;;;;;;;6.199999;5.599999;;;;;;;1.97;70.48828;95484.9;;;;
2022/09/23 04:38:30;;;;;;;6.199999;5.599999;;;;;;;1.97;70.48828;95484.9;;;;
2022/09/23 04:39:31;;;;;;;6.199999;5.599999;;;;;;;1.97;70.48828;95484.9;;;;
2022/09/23 04:40:32;;;;;;;6.199999;5.599999;;;;;;;1.97;70.48828;95484.9;;;;
2022/09/23 04:41:34;;;;;;;6.599999;6;;;;;;;1.9;70.67773;95481.2;;;;
2022/09/23 04:42:35;;;;;;;6.599999;6;;;;;;;1.9;70.67773;95481.2;;;;
2022/09/23 04:43:35;;;;;;;6.599999;6;;;;;;;1.9;70.67773;95481.2;;;;
2022/09/23 04:44:37;;;;;;;6.599999;6;;;;;;;1.9;70.67773;95481.2;;;;
2022/09/23 04:45:38;;;;;;;6.599999;6;;;;;;;1.9;70.67773;95481.2;;;;
2022/09/23 04:46:38;;;;;;;6.599999;6;;;;;;;1.9;70.67773;95481.2;;;;
2022/09/23 04:47:39;;;;;;;6.599999;6;;;;;;;1.9;70.67773;95481.2;;;;
2022/09/23 04:48:40;;;;;;;6.599999;6;;;;;;;1.9;70.67773;95481.2;;;;
2022/09/23 04:49:41;;;;;;;6.599999;6;;;;;;;1.9;70.67773;95481.2;;;;
2022/09/23 04:50:41;;;;;;;6.599999;6;;;;;;;1.9;70.67773;95481.2;;;;
2022/09/23 04:51:42;;;;;;;6.599999;6;;;;;;;1.9;70.67773;95481.2;;;;
2022/09/23 04:52:42;;;;;;;6.9;6.199999;;;;;;;1.86;70.91504;95488.59;;;;
2022/09/23 04:53:43;;;;;;;6.9;6.199999;;;;;;;1.86;70.91504;95488.59;;;;
2022/09/23 04:54:46;;;;;;;6.9;6.199999;;;;;;;1.86;70.91504;95488.59;;;;
2022/09/23 04:55:47;;;;;;;6.9;6.199999;;;;;;;1.86;70.91504;95488.59;;;;
2022/09/23 04:56:47;;;;;;;6.9;6.199999;;;;;;;1.86;70.91504;95488.59;;;;
2022/09/23 04:57:48;;;;;;;6.9;6.199999;;;;;;;1.86;70.91504;95488.59;;;;
2022/09/23 04:58:48;;;;;;;6.9;6.199999;;;;;;;1.86;70.91504;95488.59;;;;
2022/09/23 04:59:49;;;;;;;6.9;6.199999;;;;;;;1.86;70.91504;95488.59;;;;
2022/09/23 05:00:50;;;;;;;6.9;6.199999;;;;;;;1.86;70.91504;95488.59;;;;
2022/09/23 05:01:50;;;;;;;6.9;6.199999;;;;;;;1.86;70.91504;95488.59;;;;
2022/09/23 05:02:51;;;;;;;7.099999;6.400001;;;;;;;1.92;71.125;95490.99;;;;
2022/09/23 05:03:51;;;;;;;7.099999;6.400001;;;;;;;1.92;71.125;95490.99;;;;
2022/09/23 05:04:54;;;;;;;7.099999;6.400001;;;;;;;1.92;71.125;95490.99;;;;
2022/09/23 05:05:55;;;;;;;7.099999;6.400001;;;;;;;1.92;71.125;95490.99;;;;
2022/09/23 05:06:57;;;;;;;7.099999;6.400001;;;;;;;1.92;71.125;95490.99;;;;
2022/09/23 05:07:58;;;;;;;7.099999;6.400001;;;;;;;1.92;71.125;95490.99;;;;
2022/09/23 05:08:58;;;;;;;7.099999;6.400001;;;;;;;1.92;71.125;95490.99;;;;
2022/09/23 05:10:00;;;;;;;7.099999;6.400001;;;;;;;1.92;71.125;95490.99;;;;
2022/09/23 05:11:00;;;;;;;7.099999;6.400001;;;;;;;1.92;71.125;95490.99;;;;
2022/09/23 05:12:03;;;;;;;7.099999;6.400001;;;;;;;1.92;71.125;95490.99;;;;
2022/09/23 05:13:04;;;;;;;7.099999;6.400001;;;;;;;1.92;71.125;95490.99;;;;
2022/09/23 05:14:04;;;;;;;7.4;6.7;;;;;;;1.99;71.17773;95497.3;;;;
2022/09/23 05:15:04;;;;;;;7.4;6.7;;;;;;;1.99;71.17773;95497.3;;;;
2022/09/23 05:16:06;;;;;;;7.4;6.7;;;;;;;1.99;71.17773;95497.3;;;;
2022/09/23 05:17:10;;;;;;;7.4;6.7;;;;;;;1.99;71.17773;95497.3;;;;
2022/09/23 05:18:11;;;;;;;7.4;6.7;;;;;;;1.99;71.17773;95497.3;;;;
2022/09/23 05:19:12;;;;;;;7.4;6.7;;;;;;;1.99;71.17773;95497.3;;;;
2022/09/23 05:20:13;;;;;;;7.4;6.7;;;;;;;1.99;71.17773;95497.3;;;;
2022/09/23 05:21:13;;;;;;;7.4;6.7;;;;;;;1.99;71.17773;95497.3;;;;
2022/09/23 05:22:15;;;;;;;7.4;6.7;;;;;;;1.99;71.17773;95497.3;;;;
2022/09/23 05:23:16;;;;;;;7.4;6.7;;;;;;;1.99;71.17773;95497.3;;;;
2022/09/23 05:24:16;;;;;;;8.300001;7.150001;;;;;;;2.07;71.24414;95499.85;;;;
2022/09/23 05:25:17;;;;;;;8.300001;7.150001;;;;;;;2.07;71.24414;95499.85;;;;
2022/09/23 05:26:17;;;;;;;8.300001;7.150001;;;;;;;2.07;71.24414;95499.85;;;;
2022/09/23 05:27:18;;;;;;;8.300001;7.150001;;;;;;;2.07;71.24414;95499.85;;;;
2022/09/23 05:28:19;;;;;;;8.300001;7.150001;;;;;;;2.07;71.24414;95499.85;;;;
2022/09/23 05:29:19;;;;;;;8.300001;7.150001;;;;;;;2.07;71.24414;95499.85;;;;
2022/09/23 05:30:19;;;;;;;8.300001;7.150001;;;;;;;2.07;71.24414;95499.85;;;;
2022/09/23 05:31:20;;;;;;;8.300001;7.150001;;;;;;;2.07;71.24414;95499.85;;;;
2022/09/23 05:32:22;;;;;;;8.300001;7.150001;;;;;;;2.07;71.24414;95499.85;;;;
2022/09/23 05:33:23;;;;;;;8.300001;7.150001;;;;;;;2.07;71.24414;95499.85;;;;
2022/09/23 05:34:23;;;;;;;8.300001;7.150001;;;;;;;2.07;71.24414;95499.85;;;;
2022/09/23 05:35:24;;;;;;;8.05;7.25;;;;;;;2.21;71.31055;95495.45;;;;
2022/09/23 05:36:24;;;;;;;8.05;7.25;;;;;;;2.21;71.31055;95495.45;;;;
2022/09/23 05:37:26;;;;;;;8.05;7.25;;;;;;;2.21;71.31055;95495.45;;;;
2022/09/23 05:38:27;;;;;;;8.05;7.25;;;;;;;2.21;71.31055;95495.45;;;;
2022/09/23 05:39:28;;;;;;;8.05;7.25;;;;;;;2.21;71.31055;95495.45;;;;
2022/09/23 05:40:28;;;;;;;8.05;7.25;;;;;;;2.21;71.31055;95495.45;;;;
2022/09/23 05:41:29;;;;;;;8.05;7.25;;;;;;;2.21;71.31055;95495.45;;;;
2022/09/23 05:42:29;;;;;;;8.05;7.25;;;;;;;2.21;71.31055;95495.45;;;;
2022/09/23 05:43:30;;;;;;;8.05;7.25;;;;;;;2.21;71.31055;95495.45;;;;
2022/09/23 05:44:31;;;;;;;8.05;7.25;;;;;;;2.21;71.31055;95495.45;;;;
2022/09/23 05:45:31;;;;;;;7.050001;6.349999;;;;;;;2.39;71.44434;95499.69;;;;
2022/09/23 05:46:32;;;;;;;7.050001;6.349999;;;;;;;2.39;71.44434;95499.69;;;;
2022/09/23 05:47:33;;;;;;;7.050001;6.349999;;;;;;;2.39;71.44434;95499.69;;;;
2022/09/23 05:48:33;;;;;;;7.050001;6.349999;;;;;;;2.39;71.44434;95499.69;;;;
2022/09/23 05:49:35;;;;;;;7.050001;6.349999;;;;;;;2.39;71.44434;95499.69;;;;
2022/09/23 05:50:36;;;;;;;7.050001;6.349999;;;;;;;2.39;71.44434;95499.69;;;;
2022/09/23 05:51:36;;;;;;;7.050001;6.349999;;;;;;;2.39;71.44434;95499.69;;;;
2022/09/23 05:52:37;;;;;;;7.050001;6.349999;;;;;;;2.39;71.44434;95499.69;;;;
2022/09/23 05:53:37;;;;;;;7.050001;6.349999;;;;;;;2.39;71.44434;95499.69;;;;
2022/09/23 05:54:39;;;;;;;7.050001;6.349999;;;;;;;2.39;71.44434;95499.69;;;;
2022/09/23 05:55:40;;;;;;;7.050001;6.349999;;;;;;;2.39;71.44434;95499.69;;;;
2022/09/23 05:56:40;;;;;;;7.249999;6.649999;;;;;;;2.63;71.47363;95504.99;;;;